Bethesda, United Kingdom
Current Conditions -  °F | °C
As of 6:50 AM on Thursday 27 Nov 2014 (Local Time) from EGOV Reporting Station
Clear Clear  
Wind Chill: 39°   Ceiling: Unl
Heat Index: 39°   Visibility: 6mi
Dew Point: 39°   Wind: 3mph
Humidity: 100%   Direction: 80°E
Pressure: 29.59"   Gusts: NA
Location:  53.17°N, 4.08°W
Report Text: EGOV 270650Z 08003KT CAVOK 04/04 Q1002 BLU
Loading
Personal Weather Stations






























Interactive Weather Map New forecast layout! Learn more

10-Day Weather Forecast

Advertisements
Track Severe Weather on mobile